Time;durP1;ratioP1;P1;durP2;ratioP2;P2;SDS_P1;SDS_P2;PMS_P1;PMS_P2;Temp;Humidity;BMP_temperature;BMP_pressure;BME280_temperature;BME280_humidity;BME280_pressure;Samples;Min_cycle;Max_cycle;Signal;HPM_P1;HPM_P2
2023/05/20 00:00:03;;;;;;;11.30;6.80;;;;;;;13.09;100.00;64327.88;5072514;28;20236;-57
2023/05/20 00:02:28;;;;;;;12.77;7.43;;;;;;;13.04;100.00;64322.41;5072827;28;20199;-57
2023/05/20 00:04:53;;;;;;;11.33;6.83;;;;;;;12.99;100.00;64313.81;5072603;28;20205;-57
2023/05/20 00:07:19;;;;;;;11.87;7.47;;;;;;;12.97;100.00;64314.16;5072548;28;20278;-57
2023/05/20 00:09:44;;;;;;;8.52;6.80;;;;;;;12.93;100.00;64310.28;5072256;28;20698;-61
2023/05/20 00:12:10;;;;;;;8.77;6.70;;;;;;;12.99;100.00;64316.34;5072609;28;20266;-56
2023/05/20 00:14:35;;;;;;;9.43;6.67;;;;;;;13.01;100.00;64316.53;5072153;28;20307;-57
2023/05/20 00:17:01;;;;;;;8.85;6.70;;;;;;;13.06;100.00;64324.59;5072337;28;20292;-57
2023/05/20 00:19:26;;;;;;;10.00;6.47;;;;;;;13.12;100.00;64333.72;5072200;28;20200;-60
2023/05/20 00:21:51;;;;;;;9.93;6.90;;;;;;;13.09;100.00;64327.34;5072275;28;20220;-61
2023/05/20 00:24:17;;;;;;;11.02;6.63;;;;;;;13.12;100.00;64328.66;5072220;28;20193;-61
2023/05/20 00:26:42;;;;;;;14.52;6.95;;;;;;;13.30;100.00;64353.47;5071011;28;20203;-57
2023/05/20 00:29:07;;;;;;;11.27;6.47;;;;;;;13.24;100.00;64346.88;5071971;28;20197;-60
2023/05/20 00:31:33;;;;;;;10.65;6.38;;;;;;;12.98;100.00;64318.31;5072031;28;20227;-61
2023/05/20 00:33:58;;;;;;;12.37;6.87;;;;;;;12.79;100.00;64297.47;5071878;28;20208;-61
2023/05/20 00:36:24;;;;;;;10.40;6.70;;;;;;;12.62;100.00;64276.31;5071016;28;20254;-60
2023/05/20 00:38:49;;;;;;;9.67;6.67;;;;;;;12.53;100.00;64263.91;5072022;28;20217;-61
2023/05/20 00:41:15;;;;;;;13.05;7.60;;;;;;;12.50;100.00;64265.66;5071848;28;20203;-61
2023/05/20 00:43:40;;;;;;;8.73;6.07;;;;;;;12.42;100.00;64254.38;5071852;28;20213;-60
2023/05/20 00:46:06;;;;;;;9.60;6.93;;;;;;;12.35;100.00;64246.69;5071852;28;20223;-59
2023/05/20 00:48:41;;;;;;;9.20;6.43;;;;;;;12.42;100.00;64254.38;5071784;28;20685;-61
2023/05/20 00:51:06;;;;;;;9.83;5.93;;;;;;;12.40;100.00;64255.25;5071705;28;20188;-60
2023/05/20 00:53:33;;;;;;;8.37;6.13;;;;;;;12.41;100.00;64256.34;5071671;28;20228;-61
2023/05/20 00:55:59;;;;;;;10.90;6.30;;;;;;;12.39;100.00;64253.59;5071567;28;20224;-61
2023/05/20 00:58:25;;;;;;;8.13;5.70;;;;;;;12.32;100.00;64243.94;5071371;28;20282;-59
2023/05/20 01:00:50;;;;;;;11.33;6.97;;;;;;;12.35;100.00;64246.69;5071524;28;20196;-61
2023/05/20 01:03:16;;;;;;;8.90;6.53;;;;;;;12.54;100.00;64270.06;5071873;28;20245;-61
2023/05/20 01:05:42;;;;;;;10.30;6.33;;;;;;;12.58;100.00;64272.44;5071356;28;20188;-59
2023/05/20 01:08:08;;;;;;;10.60;6.17;;;;;;;12.62;100.00;64273.78;5071618;28;20223;-61
2023/05/20 01:10:38;;;;;;;9.57;6.87;;;;;;;12.80;100.00;64295.50;5071407;28;20184;-61
2023/05/20 01:13:08;;;;;;;12.03;6.87;;;;;;;12.91;100.00;64307.56;5071454;28;20698;-60
2023/05/20 01:15:34;;;;;;;10.70;6.33;;;;;;;12.84;100.00;64302.41;5071430;28;20205;-60
2023/05/20 01:18:04;;;;;;;8.23;6.33;;;;;;;12.73;100.00;64290.34;5071297;28;20690;-61
2023/05/20 01:20:32;;;;;;;9.97;6.33;;;;;;;12.77;100.00;64292.19;5071262;28;20195;-61
2023/05/20 01:22:58;;;;;;;9.77;6.43;;;;;;;12.81;100.00;64297.13;5071816;28;20216;-61
2023/05/20 01:25:23;;;;;;;14.30;7.43;;;;;;;12.93;100.00;64312.81;5071149;28;20188;-62
2023/05/20 01:27:51;;;;;;;9.77;6.70;;;;;;;12.81;100.00;64296.59;5071226;28;20252;-60
2023/05/20 01:30:17;;;;;;;11.00;7.17;;;;;;;12.55;100.00;64271.16;5071140;28;20184;-60
2023/05/20 01:32:51;;;;;;;8.37;6.40;;;;;;;12.38;100.00;64248.00;5071012;28;20655;-62
2023/05/20 01:35:19;;;;;;;12.77;6.67;;;;;;;12.31;100.00;64244.81;5070846;28;20226;-61
2023/05/20 01:37:46;;;;;;;10.93;7.67;;;;;;;12.15;100.00;64222.22;5071113;28;20207;-60
2023/05/20 01:40:14;;;;;;;12.93;7.30;;;;;;;12.27;100.00;64235.94;5070786;28;20580;-60
2023/05/20 01:42:42;;;;;;;10.03;6.77;;;;;;;12.31;100.00;64244.81;5071139;28;20192;-62
2023/05/20 01:45:08;;;;;;;9.33;6.47;;;;;;;12.26;100.00;64239.34;5070696;28;20545;-56
2023/05/20 01:47:33;;;;;;;10.93;6.47;;;;;;;12.27;100.00;64241.00;5069238;28;20306;-56
2023/05/20 01:49:59;;;;;;;8.13;6.10;;;;;;;12.29;100.00;64240.66;5070575;28;20215;-55
2023/05/20 01:52:24;;;;;;;8.83;6.50;;;;;;;12.27;100.00;64242.97;5070858;28;20542;-56
2023/05/20 01:54:50;;;;;;;14.17;7.70;;;;;;;12.34;100.00;64248.13;5070512;28;20596;-56
2023/05/20 01:57:22;;;;;;;10.68;6.28;;;;;;;12.27;100.00;64237.91;5070536;28;20208;-56
2023/05/20 01:59:48;;;;;;;11.80;6.90;;;;;;;12.19;100.00;64226.63;5070815;28;20215;-60
2023/05/20 02:02:15;;;;;;;14.93;7.07;;;;;;;12.19;100.00;64229.69;5070363;28;20196;-61
2023/05/20 02:04:44;;;;;;;8.93;6.87;;;;;;;12.23;100.00;64236.59;5070400;28;20334;-61
2023/05/20 02:07:10;;;;;;;11.40;7.10;;;;;;;12.25;100.00;64235.72;5070717;28;20670;-61
2023/05/20 02:09:36;;;;;;;10.57;6.53;;;;;;;12.28;100.00;64241.53;5070408;28;20208;-56
2023/05/20 02:12:02;;;;;;;11.23;6.93;;;;;;;12.30;100.00;64241.22;5070658;28;20288;-57
2023/05/20 02:14:27;;;;;;;8.37;5.93;;;;;;;12.39;100.00;64248.53;5070311;28;20232;-56
2023/05/20 02:16:52;;;;;;;10.73;6.07;;;;;;;12.36;100.00;64250.31;5070366;28;20746;-56
2023/05/20 02:19:22;;;;;;;12.07;6.67;;;;;;;12.58;100.00;64269.38;5070267;28;20267;-57
2023/05/20 02:21:49;;;;;;;12.97;6.50;;;;;;;12.50;100.00;64263.16;5070192;28;20203;-60
2023/05/20 02:24:15;;;;;;;11.63;6.80;;;;;;;12.21;100.00;64231.88;5070061;28;20207;-60
2023/05/20 02:26:40;;;;;;;11.20;6.23;;;;;;;12.08;100.00;64217.63;5070507;28;20196;-60
2023/05/20 02:29:06;;;;;;;10.77;7.23;;;;;;;12.14;100.00;64221.16;5070332;28;20285;-58
2023/05/20 02:31:31;;;;;;;9.43;6.37;;;;;;;12.12;100.00;64224.00;5070210;28;20250;-58
2023/05/20 02:34:03;;;;;;;8.53;6.07;;;;;;;12.12;100.00;64224.53;5070212;28;20229;-57
2023/05/20 02:36:31;;;;;;;8.47;6.17;;;;;;;12.07;100.00;64216.53;5070166;28;20220;-56
2023/05/20 02:38:56;;;;;;;8.67;6.13;;;;;;;12.07;100.00;64216.00;5069056;28;20254;-58
2023/05/20 02:41:22;;;;;;;9.77;6.20;;;;;;;11.90;100.00;64200.44;5070238;28;20678;-59
2023/05/20 02:43:47;;;;;;;7.93;5.80;;;;;;;11.92;100.00;64199.56;5069844;28;20213;-56
2023/05/20 02:46:14;;;;;;;10.00;7.57;;;;;;;11.88;100.00;64198.22;5069991;28;20268;-57
2023/05/20 02:48:40;;;;;;;8.63;6.17;;;;;;;11.89;100.00;64196.81;5069844;28;20213;-61
2023/05/20 02:51:05;;;;;;;10.53;6.77;;;;;;;11.83;100.00;64190.25;5070241;28;20193;-61
2023/05/20 02:53:30;;;;;;;12.00;6.57;;;;;;;11.82;100.00;64188.59;5069801;28;20782;-60
2023/05/20 02:55:56;;;;;;;10.00;6.50;;;;;;;11.77;100.00;64183.66;5069863;28;20223;-61
2023/05/20 02:58:25;;;;;;;7.90;6.07;;;;;;;11.78;100.00;64185.31;5070781;28;20216;-61
2023/05/20 03:00:51;;;;;;;8.70;5.80;;;;;;;11.74;100.00;64180.91;5073358;28;20677;-61
2023/05/20 03:03:17;;;;;;;8.93;5.60;;;;;;;11.67;100.00;64175.78;5073279;28;20213;-60
2023/05/20 03:05:44;;;;;;;9.47;6.30;;;;;;;11.77;100.00;64186.75;5072398;28;20735;-60
2023/05/20 03:08:10;;;;;;;9.97;5.53;;;;;;;11.85;100.00;64194.41;5072251;28;20731;-62
2023/05/20 03:10:39;;;;;;;7.93;5.90;;;;;;;12.01;100.00;64209.41;5071932;28;20207;-60
2023/05/20 03:13:10;;;;;;;8.73;6.23;;;;;;;11.93;100.00;64198.66;5072537;28;20209;-60
2023/05/20 03:15:36;;;;;;;10.73;7.23;;;;;;;11.91;100.00;64200.97;5072952;28;20215;-60
2023/05/20 03:18:02;;;;;;;9.20;5.53;;;;;;;11.89;100.00;64199.34;5073641;28;20192;-61
2023/05/20 03:20:28;;;;;;;9.60;6.27;;;;;;;11.79;100.00;64191.47;5073243;28;20191;-60
2023/05/20 03:22:54;;;;;;;9.90;6.03;;;;;;;11.75;100.00;64184.53;5073392;28;20282;-61
2023/05/20 03:25:21;;;;;;;9.17;6.07;;;;;;;11.67;100.00;64170.72;5055028;28;20342;-61
2023/05/20 03:27:47;;;;;;;8.03;6.60;;;;;;;11.70;100.00;64178.50;5073046;28;20185;-61
2023/05/20 03:30:13;;;;;;;8.53;5.90;;;;;;;11.79;100.00;64188.38;5071439;28;20199;-61
2023/05/20 03:32:39;;;;;;;8.27;5.80;;;;;;;11.97;100.00;64208.09;5072959;28;20193;-60
2023/05/20 03:35:05;;;;;;;9.23;6.20;;;;;;;12.04;100.00;64215.25;5072675;28;20311;-60
2023/05/20 03:37:31;;;;;;;12.73;6.50;;;;;;;12.09;100.00;64218.19;5072981;28;20185;-63
2023/05/20 03:39:56;;;;;;;7.47;5.80;;;;;;;12.11;100.00;64222.91;5072876;28;20278;-61
2023/05/20 03:42:21;;;;;;;9.13;6.17;;;;;;;12.33;100.00;64247.03;5072806;28;20204;-60
2023/05/20 03:44:47;;;;;;;9.97;6.20;;;;;;;12.26;100.00;64239.34;5072519;28;20295;-64
2023/05/20 03:47:12;;;;;;;10.80;6.57;;;;;;;12.25;100.00;64238.25;5071101;28;20197;-57
2023/05/20 03:49:39;;;;;;;11.50;6.30;;;;;;;12.23;100.00;64236.06;5072486;28;20209;-57
2023/05/20 03:52:05;;;;;;;10.97;7.13;;;;;;;12.17;100.00;64227.50;5072572;28;20655;-56
2023/05/20 03:54:31;;;;;;;10.73;6.53;;;;;;;12.17;100.00;64226.94;5072560;28;20717;-56
2023/05/20 03:56:56;;;;;;;7.47;5.47;;;;;;;12.18;100.00;64230.59;5072738;28;20216;-57
2023/05/20 03:59:22;;;;;;;10.50;4.90;;;;;;;12.03;100.00;64217.22;5072320;28;20612;-57
2023/05/20 04:01:48;;;;;;;10.20;5.60;;;;;;;11.90;100.00;64197.91;5072680;28;20603;-58
2023/05/20 04:04:13;;;;;;;8.50;5.53;;;;;;;11.79;100.00;64191.47;5072391;28;20295;-55
2023/05/20 04:06:45;;;;;;;9.37;5.03;;;;;;;11.82;100.00;64189.69;5072402;28;20197;-56
2023/05/20 04:09:11;;;;;;;11.83;5.40;;;;;;;11.79;100.00;64188.94;5072140;28;20220;-60
2023/05/20 04:11:36;;;;;;;13.30;5.33;;;;;;;11.85;100.00;64197.47;5072252;28;20193;-60
2023/05/20 04:14:02;;;;;;;9.27;5.47;;;;;;;11.78;100.00;64187.81;5072200;28;20228;-62
2023/05/20 04:16:28;;;;;;;9.47;5.30;;;;;;;11.93;100.00;64203.16;5071965;28;20708;-60
2023/05/20 04:18:54;;;;;;;8.17;5.73;;;;;;;11.96;100.00;64204.47;5072266;28;20224;-56
2023/05/20 04:21:19;;;;;;;7.70;5.60;;;;;;;11.97;100.00;64205.03;5071950;28;20189;-60
2023/05/20 04:23:45;;;;;;;12.40;7.43;;;;;;;11.86;100.00;64196.03;5072016;28;20203;-58
2023/05/20 04:26:11;;;;;;;7.13;5.17;;;;;;;11.87;100.00;64196.59;5071760;28;20268;-57
2023/05/20 04:28:37;;;;;;;8.07;5.37;;;;;;;11.77;100.00;64184.22;5071942;28;20295;-57
2023/05/20 04:31:03;;;;;;;8.97;5.43;;;;;;;11.85;100.00;64192.44;5071975;28;20188;-57
2023/05/20 04:33:30;;;;;;;10.90;5.67;;;;;;;11.78;100.00;64190.34;5071917;28;20208;-61
2023/05/20 04:35:57;;;;;;;7.53;5.00;;;;;;;11.71;100.00;64177.09;5071837;28;20215;-59
2023/05/20 04:38:28;;;;;;;6.57;4.90;;;;;;;11.75;100.00;64184.00;5071690;28;20269;-60
2023/05/20 04:40:56;;;;;;;8.37;5.17;;;;;;;11.96;100.00;64201.94;5071594;28;20561;-60
2023/05/20 04:43:23;;;;;;;7.50;4.60;;;;;;;12.00;100.00;64210.84;5072105;28;20216;-60
2023/05/20 04:45:49;;;;;;;7.97;4.40;;;;;;;12.11;100.00;64220.94;5071581;28;20189;-55
2023/05/20 04:48:14;;;;;;;8.50;5.13;;;;;;;12.33;100.00;64242.53;5072040;28;20239;-56
2023/05/20 04:50:40;;;;;;;6.80;5.07;;;;;;;12.36;100.00;64250.84;5071580;28;20651;-56
2023/05/20 04:53:06;;;;;;;7.83;5.57;;;;;;;12.29;100.00;64240.66;5071779;28;20212;-56
2023/05/20 04:55:32;;;;;;;7.70;5.53;;;;;;;12.60;100.00;64274.13;5071507;28;20301;-56
2023/05/20 04:57:57;;;;;;;7.30;4.90;;;;;;;12.93;100.00;64309.75;5071650;28;20650;-57
2023/05/20 05:00:22;;;;;;;10.90;5.03;;;;;;;13.10;100.00;64331.50;5071496;28;20199;-55
2023/05/20 05:02:48;;;;;;;7.50;4.77;;;;;;;13.09;100.00;64325.34;5071309;28;20560;-56
2023/05/20 05:05:14;;;;;;;9.13;5.40;;;;;;;13.29;100.00;64352.34;5071350;28;20203;-58
2023/05/20 05:07:39;;;;;;;8.30;6.00;;;;;;;13.38;100.00;64359.72;5071729;28;20200;-57
2023/05/20 05:10:05;;;;;;;7.47;5.07;;;;;;;13.25;100.00;64344.91;5071206;28;20204;-57
2023/05/20 05:12:31;;;;;;;6.93;4.97;;;;;;;13.10;100.00;64331.50;5071602;28;20307;-56
2023/05/20 05:14:57;;;;;;;7.17;4.90;;;;;;;13.27;100.00;64347.09;5071208;28;20738;-56
2023/05/20 05:17:23;;;;;;;7.47;4.80;;;;;;;13.18;100.00;64334.69;5071300;28;20745;-56
2023/05/20 05:19:48;;;;;;;8.67;6.17;;;;;;;13.41;100.00;64365.53;5071156;28;20211;-56
2023/05/20 05:22:13;;;;;;;17.07;8.23;;;;;;;13.42;100.00;64366.63;5070690;28;20192;-57
2023/05/20 05:24:39;;;;;;;11.17;7.13;;;;;;;13.38;100.00;64362.25;5071135;28;20287;-55
2023/05/20 05:27:04;;;;;;;13.10;6.70;;;;;;;13.40;100.00;64359.38;5053074;28;20565;-57
2023/05/20 05:29:30;;;;;;;12.90;7.20;;;;;;;13.59;100.00;64384.19;5071048;28;20221;-56
2023/05/20 05:31:55;;;;;;;14.43;7.77;;;;;;;13.63;100.00;64389.16;5071198;28;20647;-57
2023/05/20 05:34:21;;;;;;;9.80;7.07;;;;;;;13.62;100.00;64382.41;5070960;28;20201;-56
2023/05/20 05:36:46;;;;;;;11.68;7.53;;;;;;;13.70;100.00;64393.72;5070984;28;20215;-56
2023/05/20 05:39:12;;;;;;;12.13;7.10;;;;;;;13.89;100.00;64415.16;5052924;28;20220;-55
2023/05/20 05:41:37;;;;;;;14.87;7.87;;;;;;;13.89;100.00;64417.69;5071104;28;20185;-55
2023/05/20 05:44:03;;;;;;;13.05;7.97;;;;;;;14.04;100.00;64431.06;5070805;28;20205;-56
2023/05/20 05:46:29;;;;;;;12.17;7.73;;;;;;;14.14;100.00;64445.13;5070699;28;20197;-55
2023/05/20 05:48:54;;;;;;;11.23;7.90;;;;;;;14.22;100.00;64450.84;5070759;28;20311;-56
2023/05/20 05:51:20;;;;;;;14.93;8.32;;;;;;;14.30;100.00;64457.13;5070686;28;20538;-57
2023/05/20 05:53:46;;;;;;;15.45;7.60;;;;;;;14.46;100.00;64474.72;5070852;28;20212;-59
2023/05/20 05:56:11;;;;;;;12.33;8.33;;;;;;;14.48;100.00;64478.91;5070626;28;20274;-57
2023/05/20 05:58:37;;;;;;;13.18;8.40;;;;;;;14.50;100.00;64478.56;5070676;28;20643;-56
2023/05/20 06:01:03;;;;;;;12.35;7.97;;;;;;;14.58;100.00;64492.41;5070775;28;20207;-55
2023/05/20 06:03:29;;;;;;;13.57;8.05;;;;;;;14.62;100.00;64497.38;5070585;28;20274;-58
2023/05/20 06:05:55;;;;;;;13.27;7.50;;;;;;;14.62;100.00;64494.84;5070573;28;20199;-57
2023/05/20 06:08:20;;;;;;;11.05;7.90;;;;;;;14.81;100.00;64518.25;5070304;28;20537;-56
2023/05/20 06:10:48;;;;;;;15.18;8.00;;;;;;;14.90;100.00;64525.06;5070371;28;20663;-57
2023/05/20 06:13:14;;;;;;;15.15;7.55;;;;;;;15.02;100.00;64535.69;5070801;28;20756;-57
2023/05/20 06:15:40;;;;;;;10.80;7.72;;;;;;;15.09;100.00;64546.47;5070282;28;20220;-57
2023/05/20 06:18:05;;;;;;;11.52;6.57;;;;;;;15.26;96.82;64566.63;5070653;28;20687;-56
2023/05/20 06:20:31;;;;;;;12.07;7.57;;;;;;;15.44;95.42;64584.44;5070220;28;20667;-56
2023/05/20 06:22:56;;;;;;;12.45;7.00;;;;;;;15.51;95.39;64589.06;5070487;28;20201;-57
2023/05/20 06:25:22;;;;;;;12.65;6.32;;;;;;;15.69;94.50;64613.94;5070269;28;20204;-56
2023/05/20 06:27:48;;;;;;;8.15;6.00;;;;;;;15.84;92.27;64628.44;5070282;28;20204;-56
2023/05/20 06:30:13;;;;;;;6.18;5.22;;;;;;;16.08;88.60;64656.84;5070386;28;20197;-56
2023/05/20 06:32:39;;;;;;;10.30;5.70;;;;;;;16.24;84.38;64671.91;5070284;28;20209;-56
2023/05/20 06:35:05;;;;;;;7.70;5.43;;;;;;;16.29;82.75;64677.41;5072910;28;20702;-58
2023/05/20 06:37:30;;;;;;;7.93;4.53;;;;;;;16.28;83.35;64673.78;5073988;28;20311;-56
2023/05/20 06:39:56;;;;;;;4.88;4.22;;;;;;;16.27;83.30;64672.69;5073566;28;20330;-55
2023/05/20 06:42:21;;;;;;;6.15;5.13;;;;;;;16.50;82.81;64700.03;5073682;28;20200;-57
2023/05/20 06:44:46;;;;;;;7.57;5.53;;;;;;;16.42;84.57;64688.66;5073827;28;20216;-57
2023/05/20 06:47:16;;;;;;;7.10;4.60;;;;;;;16.68;80.27;64720.38;5055820;28;20289;-56
2023/05/20 06:49:43;;;;;;;7.07;5.22;;;;;;;16.61;81.67;64710.13;5073427;28;20230;-56
2023/05/20 06:52:08;;;;;;;8.95;4.88;;;;;;;16.77;81.38;64729.72;5073734;28;20272;-56
2023/05/20 06:54:38;;;;;;;8.50;5.00;;;;;;;16.89;80.54;64739.88;5073357;28;20201;-57
2023/05/20 06:57:05;;;;;;;14.07;5.43;;;;;;;16.80;81.65;64735.59;5073570;28;20239;-57
2023/05/20 06:59:31;;;;;;;5.65;5.07;;;;;;;17.00;100.00;64751.97;5073270;28;20208;-57
2023/05/20 07:01:56;;;;;;;9.57;5.47;;;;;;;17.43;93.75;64799.88;5073436;28;20647;-56
2023/05/20 07:04:21;;;;;;;10.55;5.95;;;;;;;17.48;94.41;64804.84;5073224;28;20197;-58
2023/05/20 07:06:47;;;;;;;8.38;6.00;;;;;;;17.47;83.75;64806.84;5073142;28;20201;-58
2023/05/20 07:09:13;;;;;;;8.63;5.78;;;;;;;17.36;83.67;64794.19;5055098;28;20217;-57
2023/05/20 07:11:38;;;;;;;10.68;5.85;;;;;;;17.43;76.64;64802.44;5073355;28;20546;-57
2023/05/20 07:14:04;;;;;;;9.45;5.50;;;;;;;17.46;79.52;64805.75;5072979;28;20216;-59
2023/05/20 07:16:31;;;;;;;7.75;5.50;;;;;;;17.56;79.76;64813.69;5072968;28;20558;-58
2023/05/20 07:18:56;;;;;;;9.55;5.97;;;;;;;17.87;76.76;64847.31;5055315;28;20205;-57
2023/05/20 07:21:22;;;;;;;7.78;5.45;;;;;;;17.85;72.32;64848.22;5073044;28;20271;-58
2023/05/20 07:23:48;;;;;;;6.60;4.70;;;;;;;17.86;72.70;64848.75;5073128;28;20208;-57
2023/05/20 07:26:13;;;;;;;6.05;4.55;;;;;;;17.95;70.61;64856.69;5073055;28;20615;-57
2023/05/20 07:28:39;;;;;;;7.55;5.60;;;;;;;18.00;70.65;64864.75;5072876;28;20632;-57
2023/05/20 07:31:04;;;;;;;6.32;4.95;;;;;;;18.00;71.51;64864.75;5072779;28;20180;-58
2023/05/20 07:33:29;;;;;;;7.28;5.20;;;;;;;18.01;73.22;64868.41;5072792;28;20217;-57
2023/05/20 07:35:55;;;;;;;7.57;5.28;;;;;;;17.93;74.79;64857.03;5072676;28;20299;-56
2023/05/20 07:38:20;;;;;;;9.73;5.55;;;;;;;18.33;97.92;64898.03;5072823;28;20266;-57
2023/05/20 07:40:46;;;;;;;7.35;5.28;;;;;;;18.75;99.99;64946.94;5072643;28;20602;-57
2023/05/20 07:43:11;;;;;;;10.55;6.15;;;;;;;18.93;95.13;64963.69;5072405;28;20602;-57
2023/05/20 07:45:37;;;;;;;10.05;5.72;;;;;;;19.04;85.21;64980.94;5072111;28;20208;-56
2023/05/20 07:48:03;;;;;;;6.78;4.90;;;;;;;19.17;86.33;64990.16;5072813;28;20555;-57
2023/05/20 07:50:29;;;;;;;10.15;5.30;;;;;;;19.29;73.54;65003.41;5072370;28;20185;-56
2023/05/20 07:52:54;;;;;;;7.43;5.53;;;;;;;19.22;65.74;64998.25;5072807;28;20196;-56
2023/05/20 07:55:20;;;;;;;8.38;5.93;;;;;;;19.19;67.10;64992.94;5072607;28;20193;-57
2023/05/20 07:57:45;;;;;;;10.25;5.30;;;;;;;19.15;71.55;64987.97;5072310;28;20272;-57
2023/05/20 08:00:11;;;;;;;7.40;5.47;;;;;;;19.09;83.07;64981.34;5072613;28;20196;-57
2023/05/20 08:02:37;;;;;;;8.65;5.25;;;;;;;19.23;76.52;64997.34;5072319;28;20189;-58
2023/05/20 08:05:03;;;;;;;6.45;5.18;;;;;;;19.24;68.90;64997.91;5054270;28;20270;-57
2023/05/20 08:07:29;;;;;;;8.93;6.03;;;;;;;19.41;66.39;65016.16;5072287;28;20204;-57
2023/05/20 08:09:55;;;;;;;6.43;5.43;;;;;;;19.41;71.53;65016.16;5072203;28;20211;-56
2023/05/20 08:12:21;;;;;;;8.70;5.38;;;;;;;19.40;67.37;65015.59;5072690;28;20213;-56
2023/05/20 08:14:46;;;;;;;9.32;5.68;;;;;;;19.48;73.48;65023.88;5072012;28;20216;-57
2023/05/20 08:17:11;;;;;;;8.45;6.07;;;;;;;19.67;81.82;65045.41;5072140;28;20742;-58
2023/05/20 08:19:37;;;;;;;8.40;6.38;;;;;;;19.76;76.76;65055.34;5071879;28;20201;-56
2023/05/20 08:22:02;;;;;;;7.47;5.75;;;;;;;20.05;71.77;65084.81;5072177;28;20279;-58
2023/05/20 08:24:28;;;;;;;10.85;6.57;;;;;;;19.77;69.65;65056.44;5072174;28;20212;-57
2023/05/20 08:26:54;;;;;;;7.88;6.07;;;;;;;19.78;67.05;65054.44;5071767;28;20189;-57
2023/05/20 08:29:19;;;;;;;10.25;5.57;;;;;;;19.96;67.70;65076.88;5071891;28;20205;-63
2023/05/20 08:31:44;;;;;;;5.80;4.93;;;;;;;20.06;66.29;65088.47;5071818;28;20192;-63
2023/05/20 08:34:10;;;;;;;7.50;5.30;;;;;;;19.94;64.83;65077.78;5071820;28;20197;-62
2023/05/20 08:36:35;;;;;;;11.13;5.93;;;;;;;19.84;67.73;65063.63;5071943;28;20686;-62
2023/05/20 08:39:01;;;;;;;8.38;5.57;;;;;;;19.84;66.43;65064.16;5071509;28;20212;-61
2023/05/20 08:41:26;;;;;;;6.93;5.50;;;;;;;19.71;66.12;65047.28;5071695;28;20319;-61
2023/05/20 08:43:53;;;;;;;6.57;5.50;;;;;;;19.79;65.35;65058.09;5071668;28;20550;-60
2023/05/20 08:46:20;;;;;;;10.48;6.07;;;;;;;19.91;62.47;65071.91;5071865;28;20212;-62
2023/05/20 08:48:45;;;;;;;10.13;6.25;;;;;;;19.81;68.74;65057.75;5071457;28;20216;-61
2023/05/20 08:51:14;;;;;;;8.40;5.70;;;;;;;19.84;67.91;65064.16;5071721;28;20169;-56
2023/05/20 08:53:39;;;;;;;9.52;5.22;;;;;;;20.01;68.94;65080.41;5071541;28;20209;-56
2023/05/20 08:56:06;;;;;;;8.23;6.05;;;;;;;19.98;68.02;65079.06;5070395;28;20209;-56
2023/05/20 08:58:31;;;;;;;8.55;5.63;;;;;;;20.10;66.50;65092.34;5071484;28;20240;-60
2023/05/20 09:00:57;;;;;;;11.75;6.03;;;;;;;20.25;67.04;65108.94;5070588;28;20216;-57
2023/05/20 09:03:24;;;;;;;11.68;5.68;;;;;;;20.24;63.79;65104.72;5071402;28;20582;-58
2023/05/20 09:05:50;;;;;;;7.22;5.00;;;;;;;20.26;65.32;65106.94;5071375;28;20223;-58
2023/05/20 09:08:16;;;;;;;6.97;5.20;;;;;;;20.54;63.57;65135.31;5070036;28;20714;-58
2023/05/20 09:10:41;;;;;;;8.88;5.68;;;;;;;20.75;63.90;65161.63;5071433;28;20243;-59
2023/05/20 09:13:09;;;;;;;10.50;5.68;;;;;;;20.71;66.23;65156.66;5071089;28;20223;-57
2023/05/20 09:15:35;;;;;;;6.70;6.00;;;;;;;20.67;62.73;65154.78;5071176;28;20692;-57
2023/05/20 09:18:05;;;;;;;7.82;5.57;;;;;;;21.04;62.53;65192.59;5071457;28;20277;-58
2023/05/20 09:20:33;;;;;;;15.68;6.50;;;;;;;21.30;60.20;65223.91;5071016;28;20654;-58
2023/05/20 09:23:01;;;;;;;8.65;5.95;;;;;;;21.15;63.15;65207.88;5070987;28;20188;-57
2023/05/20 09:25:27;;;;;;;8.77;5.88;;;;;;;21.48;61.66;65238.69;5070967;28;20224;-57
2023/05/20 09:27:53;;;;;;;7.65;5.20;;;;;;;21.70;60.02;65266.16;5071118;28;20284;-57
2023/05/20 09:30:20;;;;;;;8.73;6.32;;;;;;;21.64;61.68;65262.06;5071161;28;20242;-58
2023/05/20 09:32:52;;;;;;;8.95;5.82;;;;;;;21.72;60.83;65270.91;5070914;28;20196;-57
2023/05/20 09:35:18;;;;;;;7.97;5.43;;;;;;;21.94;62.33;65294.19;5070916;28;20216;-58
2023/05/20 09:37:45;;;;;;;8.55;6.00;;;;;;;22.14;59.09;65316.31;5070756;28;20216;-57
2023/05/20 09:40:14;;;;;;;7.30;5.60;;;;;;;22.46;58.34;65354.84;5071061;28;20307;-60
2023/05/20 09:42:53;;;;;;;6.75;5.80;;;;;;;22.47;59.65;65352.84;5069783;28;20287;-61
2023/05/20 09:45:21;;;;;;;6.82;5.65;;;;;;;22.27;58.26;65333.25;5070917;28;20727;-61
2023/05/20 09:47:46;;;;;;;9.15;5.32;;;;;;;22.58;56.89;65365.03;5071034;28;20246;-61
2023/05/20 09:50:14;;;;;;;6.80;5.43;;;;;;;22.59;57.74;65366.13;5070695;28;20632;-60
2023/05/20 09:52:40;;;;;;;7.85;5.72;;;;;;;22.45;56.54;65348.06;5070718;28;20280;-62
2023/05/20 09:55:06;;;;;;;7.43;6.00;;;;;;;22.43;55.72;65345.84;5070689;28;20257;-60
2023/05/20 09:57:35;;;;;;;7.40;5.97;;;;;;;22.52;57.44;65358.91;5070491;28;20212;-62
2023/05/20 10:00:12;;;;;;;7.18;5.82;;;;;;;22.80;55.79;65391.41;5070728;28;20236;-60
2023/05/20 10:02:37;;;;;;;7.35;5.47;;;;;;;21.85;57.26;65284.22;5070691;28;20192;-61
2023/05/20 10:05:09;;;;;;;10.10;6.00;;;;;;;21.83;57.08;65279.44;5070464;28;20204;-60
2023/05/20 10:07:56;;;;;;;10.35;5.03;;;;;;;22.56;56.68;65363.34;5070491;28;20227;-61
2023/05/20 10:10:51;;;;;;;8.38;5.45;;;;;;;22.93;59.16;65403.22;5070307;28;20219;-61
2023/05/20 10:13:47;;;;;;;6.60;5.30;;;;;;;23.25;53.32;65439.22;5016150;28;20234;-57
2023/05/20 10:16:43;;;;;;;5.75;5.00;;;;;;;23.10;56.23;65422.06;5070483;28;20212;-62
2023/05/20 10:19:22;;;;;;;8.57;5.70;;;;;;;23.78;55.02;65494.31;5063323;28;20221;-61
2023/05/20 10:22:00;;;;;;;5.43;4.93;;;;;;;23.19;50.11;65427.44;5052289;28;20189;-61
2023/05/20 10:24:45;;;;;;;9.32;4.70;;;;;;;23.59;50.76;65476.38;5070128;28;20251;-60
2023/05/20 10:27:15;;;;;;;5.30;4.13;;;;;;;23.74;49.67;65489.88;5070755;28;20226;-60
2023/05/20 10:30:00;;;;;;;4.97;4.47;;;;;;;23.94;50.30;65509.47;5070014;28;20309;-60
2023/05/20 10:32:32;;;;;;;8.98;4.85;;;;;;;24.28;51.44;65552.31;5069956;28;20604;-61
2023/05/20 10:35:08;;;;;;;9.05;4.65;;;;;;;24.54;49.82;65578.59;5070095;28;20212;-61
2023/05/20 10:37:43;;;;;;;6.22;4.32;;;;;;;24.88;49.90;65616.34;5069800;28;20216;-61
2023/05/20 10:40:13;;;;;;;5.57;4.63;;;;;;;24.55;45.41;65579.13;5070034;28;20192;-62
2023/05/20 10:42:40;;;;;;;7.28;3.95;;;;;;;24.18;47.48;65538.66;5069955;28;20271;-59
2023/05/20 10:45:07;;;;;;;5.85;4.00;;;;;;;23.55;47.35;65471.97;5070015;28;20205;-61
2023/05/20 10:47:34;;;;;;;5.35;3.95;;;;;;;23.32;47.58;65441.88;5070227;28;20271;-60
2023/05/20 10:50:04;;;;;;;4.20;3.47;;;;;;;23.98;47.67;65516.47;5069779;28;20234;-63
2023/05/20 10:52:38;;;;;;;5.47;4.40;;;;;;;23.71;49.31;65489.69;5051878;28;20208;-61
2023/05/20 10:55:03;;;;;;;6.60;4.13;;;;;;;23.84;49.01;65500.94;5069571;28;20331;-59
2023/05/20 10:57:29;;;;;;;7.22;4.18;;;;;;;23.52;47.03;65465.50;5069931;28;20299;-61
2023/05/20 10:59:55;;;;;;;5.72;3.97;;;;;;;23.70;48.40;65488.56;5069790;28;20216;-60
2023/05/20 11:02:27;;;;;;;10.30;4.35;;;;;;;24.14;47.11;65536.81;5068258;28;20273;-61
2023/05/20 11:04:55;;;;;;;4.88;4.30;;;;;;;23.67;46.93;65485.25;5069980;28;20239;-61
2023/05/20 11:07:27;;;;;;;7.22;4.40;;;;;;;24.00;46.94;65518.69;5070167;28;20290;-61
2023/05/20 11:09:54;;;;;;;5.30;4.40;;;;;;;24.53;45.67;65577.47;5069781;28;20359;-61
2023/05/20 11:12:21;;;;;;;5.35;4.07;;;;;;;23.65;44.88;65479.91;5070108;28;20784;-61
2023/05/20 11:14:48;;;;;;;4.70;4.28;;;;;;;24.12;45.99;65535.16;5069627;28;20240;-61
2023/05/20 11:17:15;;;;;;;5.80;4.47;;;;;;;23.89;47.18;65509.63;5070005;28;20219;-60
2023/05/20 11:19:41;;;;;;;7.75;4.93;;;;;;;23.73;46.35;65488.78;5070488;28;20680;-62
2023/05/20 11:22:07;;;;;;;5.65;4.18;;;;;;;23.19;47.01;65432.06;5071863;28;20322;-62
2023/05/20 11:24:32;;;;;;;5.47;4.45;;;;;;;23.28;46.33;65440.00;5072927;28;20674;-61